sensor_id;sensor_type;location;lat;lon;timestamp;P1;durP1;ratioP1;P2;durP2;ratioP2
59040;SDS011;44825;53.200;6.448;2023-11-21T00:01:11;19.95;;;4.90;;
59040;SDS011;44825;53.200;6.448;2023-11-21T00:03:37;22.27;;;5.00;;
59040;SDS011;44825;53.200;6.448;2023-11-21T00:06:03;26.58;;;5.07;;
59040;SDS011;44825;53.200;6.448;2023-11-21T00:08:29;21.60;;;4.43;;
59040;SDS011;44825;53.200;6.448;2023-11-21T00:10:55;24.45;;;5.00;;
59040;SDS011;44825;53.200;6.448;2023-11-21T00:13:24;22.13;;;4.55;;
59040;SDS011;44825;53.200;6.448;2023-11-21T00:15:50;25.77;;;5.30;;
59040;SDS011;44825;53.200;6.448;2023-11-21T00:18:16;17.80;;;5.03;;
59040;SDS011;44825;53.200;6.448;2023-11-21T00:20:42;20.42;;;4.50;;
59040;SDS011;44825;53.200;6.448;2023-11-21T00:23:08;20.98;;;4.63;;
59040;SDS011;44825;53.200;6.448;2023-11-21T00:25:34;21.80;;;6.05;;
59040;SDS011;44825;53.200;6.448;2023-11-21T00:28:00;21.92;;;5.60;;
59040;SDS011;44825;53.200;6.448;2023-11-21T00:30:27;19.85;;;4.70;;
59040;SDS011;44825;53.200;6.448;2023-11-21T00:32:53;20.35;;;4.70;;
59040;SDS011;44825;53.200;6.448;2023-11-21T00:35:20;22.08;;;5.82;;
59040;SDS011;44825;53.200;6.448;2023-11-21T00:37:46;15.43;;;5.38;;
59040;SDS011;44825;53.200;6.448;2023-11-21T00:40:14;18.15;;;4.70;;
59040;SDS011;44825;53.200;6.448;2023-11-21T00:42:41;25.45;;;5.90;;
59040;SDS011;44825;53.200;6.448;2023-11-21T00:45:07;21.20;;;5.20;;
59040;SDS011;44825;53.200;6.448;2023-11-21T00:47:33;26.33;;;6.47;;
59040;SDS011;44825;53.200;6.448;2023-11-21T00:49:59;25.63;;;5.60;;
59040;SDS011;44825;53.200;6.448;2023-11-21T00:52:25;23.38;;;5.28;;
59040;SDS011;44825;53.200;6.448;2023-11-21T00:54:51;17.05;;;5.10;;
59040;SDS011;44825;53.200;6.448;2023-11-21T00:57:17;24.00;;;5.45;;
59040;SDS011;44825;53.200;6.448;2023-11-21T00:59:43;25.88;;;6.88;;
59040;SDS011;44825;53.200;6.448;2023-11-21T01:02:10;13.55;;;4.97;;
59040;SDS011;44825;53.200;6.448;2023-11-21T01:04:36;27.65;;;5.38;;
59040;SDS011;44825;53.200;6.448;2023-11-21T01:07:02;19.02;;;4.80;;
59040;SDS011;44825;53.200;6.448;2023-11-21T01:09:30;17.60;;;5.45;;
59040;SDS011;44825;53.200;6.448;2023-11-21T01:11:56;18.95;;;4.90;;
59040;SDS011;44825;53.200;6.448;2023-11-21T01:14:24;23.83;;;5.30;;
59040;SDS011;44825;53.200;6.448;2023-11-21T01:16:52;27.83;;;5.88;;
59040;SDS011;44825;53.200;6.448;2023-11-21T01:19:18;15.90;;;5.55;;
59040;SDS011;44825;53.200;6.448;2023-11-21T01:21:44;22.15;;;5.47;;
59040;SDS011;44825;53.200;6.448;2023-11-21T01:24:10;19.83;;;5.97;;
59040;SDS011;44825;53.200;6.448;2023-11-21T01:26:36;20.58;;;6.55;;
59040;SDS011;44825;53.200;6.448;2023-11-21T01:29:02;19.67;;;5.35;;
59040;SDS011;44825;53.200;6.448;2023-11-21T01:31:29;17.95;;;5.35;;
59040;SDS011;44825;53.200;6.448;2023-11-21T01:33:56;22.30;;;6.10;;
59040;SDS011;44825;53.200;6.448;2023-11-21T01:36:23;20.98;;;5.53;;
59040;SDS011;44825;53.200;6.448;2023-11-21T01:38:56;23.92;;;6.43;;
59040;SDS011;44825;53.200;6.448;2023-11-21T01:41:24;24.55;;;6.38;;
59040;SDS011;44825;53.200;6.448;2023-11-21T01:43:51;29.10;;;6.28;;
59040;SDS011;44825;53.200;6.448;2023-11-21T01:46:18;22.23;;;6.97;;
59040;SDS011;44825;53.200;6.448;2023-11-21T01:48:45;30.38;;;6.43;;
59040;SDS011;44825;53.200;6.448;2023-11-21T01:51:11;24.65;;;6.15;;
59040;SDS011;44825;53.200;6.448;2023-11-21T01:53:38;28.70;;;7.07;;
59040;SDS011;44825;53.200;6.448;2023-11-21T01:56:05;20.35;;;6.55;;
59040;SDS011;44825;53.200;6.448;2023-11-21T01:58:35;23.85;;;6.15;;
59040;SDS011;44825;53.200;6.448;2023-11-21T02:01:01;25.73;;;6.80;;
59040;SDS011;44825;53.200;6.448;2023-11-21T02:03:28;25.58;;;7.50;;
59040;SDS011;44825;53.200;6.448;2023-11-21T02:05:54;23.20;;;7.32;;
59040;SDS011;44825;53.200;6.448;2023-11-21T02:08:20;24.52;;;8.15;;
59040;SDS011;44825;53.200;6.448;2023-11-21T02:10:46;30.90;;;8.52;;
59040;SDS011;44825;53.200;6.448;2023-11-21T02:13:12;21.35;;;7.15;;
59040;SDS011;44825;53.200;6.448;2023-11-21T02:15:38;27.45;;;8.05;;
59040;SDS011;44825;53.200;6.448;2023-11-21T02:18:06;26.30;;;8.57;;
59040;SDS011;44825;53.200;6.448;2023-11-21T02:20:32;22.00;;;7.63;;
59040;SDS011;44825;53.200;6.448;2023-11-21T02:23:00;27.63;;;7.82;;
59040;SDS011;44825;53.200;6.448;2023-11-21T02:25:27;21.17;;;7.70;;
59040;SDS011;44825;53.200;6.448;2023-11-21T02:27:54;18.63;;;7.22;;
59040;SDS011;44825;53.200;6.448;2023-11-21T02:30:20;18.63;;;7.57;;
59040;SDS011;44825;53.200;6.448;2023-11-21T02:32:47;27.08;;;7.82;;
59040;SDS011;44825;53.200;6.448;2023-11-21T02:35:13;20.38;;;7.93;;
59040;SDS011;44825;53.200;6.448;2023-11-21T02:37:41;27.95;;;9.45;;
59040;SDS011;44825;53.200;6.448;2023-11-21T02:40:10;18.45;;;7.80;;
59040;SDS011;44825;53.200;6.448;2023-11-21T02:42:42;25.75;;;8.32;;
59040;SDS011;44825;53.200;6.448;2023-11-21T02:45:09;26.70;;;9.20;;
59040;SDS011;44825;53.200;6.448;2023-11-21T02:47:37;30.25;;;8.70;;
59040;SDS011;44825;53.200;6.448;2023-11-21T02:50:03;22.98;;;9.40;;
59040;SDS011;44825;53.200;6.448;2023-11-21T02:52:32;19.95;;;7.72;;
59040;SDS011;44825;53.200;6.448;2023-11-21T02:54:59;23.55;;;8.70;;
59040;SDS011;44825;53.200;6.448;2023-11-21T02:57:25;22.98;;;9.40;;
59040;SDS011;44825;53.200;6.448;2023-11-21T02:59:51;28.48;;;9.57;;
59040;SDS011;44825;53.200;6.448;2023-11-21T03:02:17;27.65;;;9.20;;
59040;SDS011;44825;53.200;6.448;2023-11-21T03:04:43;24.20;;;9.05;;
59040;SDS011;44825;53.200;6.448;2023-11-21T03:07:09;31.90;;;10.18;;
59040;SDS011;44825;53.200;6.448;2023-11-21T03:09:35;25.65;;;10.48;;
59040;SDS011;44825;53.200;6.448;2023-11-21T03:12:01;28.25;;;9.77;;
59040;SDS011;44825;53.200;6.448;2023-11-21T03:14:27;27.58;;;11.05;;
59040;SDS011;44825;53.200;6.448;2023-11-21T03:16:54;29.83;;;9.75;;
59040;SDS011;44825;53.200;6.448;2023-11-21T03:19:20;28.77;;;10.05;;
59040;SDS011;44825;53.200;6.448;2023-11-21T03:21:46;28.15;;;10.02;;
59040;SDS011;44825;53.200;6.448;2023-11-21T03:24:12;24.75;;;9.35;;
59040;SDS011;44825;53.200;6.448;2023-11-21T03:26:38;25.70;;;10.13;;
59040;SDS011;44825;53.200;6.448;2023-11-21T03:29:04;26.63;;;9.38;;
59040;SDS011;44825;53.200;6.448;2023-11-21T03:31:30;27.35;;;10.60;;
59040;SDS011;44825;53.200;6.448;2023-11-21T03:33:56;27.35;;;10.05;;
59040;SDS011;44825;53.200;6.448;2023-11-21T03:36:22;17.63;;;8.80;;
59040;SDS011;44825;53.200;6.448;2023-11-21T03:38:50;20.05;;;8.43;;
59040;SDS011;44825;53.200;6.448;2023-11-21T03:41:16;22.10;;;9.25;;
59040;SDS011;44825;53.200;6.448;2023-11-21T03:43:42;27.52;;;9.45;;
59040;SDS011;44825;53.200;6.448;2023-11-21T03:46:08;18.88;;;9.18;;
59040;SDS011;44825;53.200;6.448;2023-11-21T03:48:35;25.27;;;9.13;;
59040;SDS011;44825;53.200;6.448;2023-11-21T03:51:01;21.63;;;9.20;;
59040;SDS011;44825;53.200;6.448;2023-11-21T03:53:27;23.55;;;9.65;;
59040;SDS011;44825;53.200;6.448;2023-11-21T03:55:53;23.50;;;9.85;;
59040;SDS011;44825;53.200;6.448;2023-11-21T03:58:19;24.13;;;10.07;;
59040;SDS011;44825;53.200;6.448;2023-11-21T04:00:46;20.75;;;8.70;;
59040;SDS011;44825;53.200;6.448;2023-11-21T04:03:13;30.02;;;9.70;;
59040;SDS011;44825;53.200;6.448;2023-11-21T04:05:40;21.48;;;9.05;;
59040;SDS011;44825;53.200;6.448;2023-11-21T04:08:06;20.35;;;8.75;;
59040;SDS011;44825;53.200;6.448;2023-11-21T04:10:33;24.65;;;8.63;;
59040;SDS011;44825;53.200;6.448;2023-11-21T04:12:59;21.73;;;9.05;;
59040;SDS011;44825;53.200;6.448;2023-11-21T04:15:26;20.48;;;9.23;;
59040;SDS011;44825;53.200;6.448;2023-11-21T04:17:52;24.17;;;9.30;;
59040;SDS011;44825;53.200;6.448;2023-11-21T04:20:18;20.08;;;9.30;;
59040;SDS011;44825;53.200;6.448;2023-11-21T04:22:44;26.33;;;9.52;;
59040;SDS011;44825;53.200;6.448;2023-11-21T04:25:11;19.73;;;8.57;;
59040;SDS011;44825;53.200;6.448;2023-11-21T04:27:38;20.80;;;9.25;;
59040;SDS011;44825;53.200;6.448;2023-11-21T04:30:05;19.92;;;7.95;;
59040;SDS011;44825;53.200;6.448;2023-11-21T04:32:31;22.85;;;8.45;;
59040;SDS011;44825;53.200;6.448;2023-11-21T04:34:57;24.70;;;8.88;;
59040;SDS011;44825;53.200;6.448;2023-11-21T04:37:23;21.60;;;9.02;;
59040;SDS011;44825;53.200;6.448;2023-11-21T04:39:49;21.52;;;8.45;;
59040;SDS011;44825;53.200;6.448;2023-11-21T04:42:15;22.80;;;9.10;;
59040;SDS011;44825;53.200;6.448;2023-11-21T04:44:41;30.05;;;10.07;;
59040;SDS011;44825;53.200;6.448;2023-11-21T04:47:09;27.48;;;9.00;;
59040;SDS011;44825;53.200;6.448;2023-11-21T04:49:39;27.35;;;9.50;;
59040;SDS011;44825;53.200;6.448;2023-11-21T04:52:05;29.10;;;10.07;;
59040;SDS011;44825;53.200;6.448;2023-11-21T04:54:32;34.35;;;10.52;;
59040;SDS011;44825;53.200;6.448;2023-11-21T04:56:58;31.88;;;10.10;;
59040;SDS011;44825;53.200;6.448;2023-11-21T04:59:25;33.97;;;10.60;;
59040;SDS011;44825;53.200;6.448;2023-11-21T05:01:52;28.30;;;10.40;;
59040;SDS011;44825;53.200;6.448;2023-11-21T05:04:19;26.83;;;9.48;;
59040;SDS011;44825;53.200;6.448;2023-11-21T05:06:46;21.95;;;9.13;;
59040;SDS011;44825;53.200;6.448;2023-11-21T05:09:12;22.50;;;9.57;;
59040;SDS011;44825;53.200;6.448;2023-11-21T05:11:39;17.58;;;8.00;;
59040;SDS011;44825;53.200;6.448;2023-11-21T05:14:06;23.13;;;9.45;;
59040;SDS011;44825;53.200;6.448;2023-11-21T05:16:32;21.50;;;8.77;;
59040;SDS011;44825;53.200;6.448;2023-11-21T05:18:59;18.48;;;8.15;;
59040;SDS011;44825;53.200;6.448;2023-11-21T05:21:26;21.77;;;8.30;;
59040;SDS011;44825;53.200;6.448;2023-11-21T05:23:52;22.20;;;9.10;;
59040;SDS011;44825;53.200;6.448;2023-11-21T05:26:18;23.58;;;9.82;;
59040;SDS011;44825;53.200;6.448;2023-11-21T05:28:45;19.40;;;8.45;;
59040;SDS011;44825;53.200;6.448;2023-11-21T05:31:11;23.25;;;8.60;;
59040;SDS011;44825;53.200;6.448;2023-11-21T05:33:37;24.48;;;8.93;;
59040;SDS011;44825;53.200;6.448;2023-11-21T05:36:03;15.27;;;7.68;;
59040;SDS011;44825;53.200;6.448;2023-11-21T05:38:29;24.90;;;10.75;;
59040;SDS011;44825;53.200;6.448;2023-11-21T05:40:55;23.55;;;9.45;;
59040;SDS011;44825;53.200;6.448;2023-11-21T05:43:23;21.77;;;8.98;;
59040;SDS011;44825;53.200;6.448;2023-11-21T05:45:49;16.17;;;8.90;;
59040;SDS011;44825;53.200;6.448;2023-11-21T05:48:15;20.35;;;10.05;;
59040;SDS011;44825;53.200;6.448;2023-11-21T05:50:41;21.90;;;11.63;;
59040;SDS011;44825;53.200;6.448;2023-11-21T05:53:07;20.92;;;9.40;;
59040;SDS011;44825;53.200;6.448;2023-11-21T05:55:35;20.38;;;10.38;;
59040;SDS011;44825;53.200;6.448;2023-11-21T05:58:01;21.00;;;10.45;;
59040;SDS011;44825;53.200;6.448;2023-11-21T06:00:27;24.40;;;10.85;;
59040;SDS011;44825;53.200;6.448;2023-11-21T06:02:54;19.98;;;11.13;;
59040;SDS011;44825;53.200;6.448;2023-11-21T06:05:21;23.95;;;11.65;;
59040;SDS011;44825;53.200;6.448;2023-11-21T06:07:48;20.23;;;12.18;;
59040;SDS011;44825;53.200;6.448;2023-11-21T06:10:14;25.90;;;12.35;;
59040;SDS011;44825;53.200;6.448;2023-11-21T06:12:42;27.80;;;12.95;;
59040;SDS011;44825;53.200;6.448;2023-11-21T06:15:09;25.25;;;12.30;;
59040;SDS011;44825;53.200;6.448;2023-11-21T06:17:38;29.55;;;14.13;;
59040;SDS011;44825;53.200;6.448;2023-11-21T06:20:05;27.58;;;12.82;;
59040;SDS011;44825;53.200;6.448;2023-11-21T06:22:41;26.05;;;13.70;;
59040;SDS011;44825;53.200;6.448;2023-11-21T06:25:08;29.08;;;14.23;;
59040;SDS011;44825;53.200;6.448;2023-11-21T06:27:37;29.27;;;13.32;;
59040;SDS011;44825;53.200;6.448;2023-11-21T06:30:04;20.52;;;10.48;;
59040;SDS011;44825;53.200;6.448;2023-11-21T06:32:31;21.40;;;10.20;;
59040;SDS011;44825;53.200;6.448;2023-11-21T06:34:58;20.08;;;9.73;;
59040;SDS011;44825;53.200;6.448;2023-11-21T06:37:25;20.25;;;9.65;;
59040;SDS011;44825;53.200;6.448;2023-11-21T06:39:51;21.80;;;10.73;;
59040;SDS011;44825;53.200;6.448;2023-11-21T06:42:18;20.98;;;11.27;;
59040;SDS011;44825;53.200;6.448;2023-11-21T06:44:47;25.75;;;12.95;;
59040;SDS011;44825;53.200;6.448;2023-11-21T06:47:13;27.08;;;12.27;;
59040;SDS011;44825;53.200;6.448;2023-11-21T06:49:41;27.55;;;12.43;;
59040;SDS011;44825;53.200;6.448;2023-11-21T06:52:07;25.48;;;12.98;;
59040;SDS011;44825;53.200;6.448;2023-11-21T06:54:36;23.88;;;11.38;;
59040;SDS011;44825;53.200;6.448;2023-11-21T06:57:02;25.55;;;12.23;;
59040;SDS011;44825;53.200;6.448;2023-11-21T06:59:28;22.88;;;11.57;;
59040;SDS011;44825;53.200;6.448;2023-11-21T07:01:54;19.60;;;11.35;;
59040;SDS011;44825;53.200;6.448;2023-11-21T07:04:21;19.23;;;10.65;;
59040;SDS011;44825;53.200;6.448;2023-11-21T07:06:47;21.17;;;11.52;;
59040;SDS011;44825;53.200;6.448;2023-11-21T07:09:13;16.50;;;11.00;;
59040;SDS011;44825;53.200;6.448;2023-11-21T07:11:40;18.67;;;11.90;;
59040;SDS011;44825;53.200;6.448;2023-11-21T07:14:07;18.23;;;11.25;;
59040;SDS011;44825;53.200;6.448;2023-11-21T07:16:36;19.20;;;11.75;;
59040;SDS011;44825;53.200;6.448;2023-11-21T07:19:06;22.40;;;11.88;;
59040;SDS011;44825;53.200;6.448;2023-11-21T07:21:33;21.90;;;12.63;;
59040;SDS011;44825;53.200;6.448;2023-11-21T07:24:00;21.73;;;13.18;;
59040;SDS011;44825;53.200;6.448;2023-11-21T07:26:26;21.70;;;13.25;;
59040;SDS011;44825;53.200;6.448;2023-11-21T07:28:52;24.48;;;13.75;;
59040;SDS011;44825;53.200;6.448;2023-11-21T07:31:18;24.48;;;14.65;;
59040;SDS011;44825;53.200;6.448;2023-11-21T07:33:45;24.42;;;15.07;;
59040;SDS011;44825;53.200;6.448;2023-11-21T07:36:14;29.13;;;16.65;;
59040;SDS011;44825;53.200;6.448;2023-11-21T07:38:41;27.85;;;17.05;;
59040;SDS011;44825;53.200;6.448;2023-11-21T07:41:08;26.52;;;16.52;;
59040;SDS011;44825;53.200;6.448;2023-11-21T07:43:35;25.10;;;15.50;;
59040;SDS011;44825;53.200;6.448;2023-11-21T07:46:01;26.05;;;15.50;;
59040;SDS011;44825;53.200;6.448;2023-11-21T07:48:31;24.48;;;15.27;;
59040;SDS011;44825;53.200;6.448;2023-11-21T07:50:58;28.42;;;15.73;;
59040;SDS011;44825;53.200;6.448;2023-11-21T07:53:24;23.88;;;14.45;;
59040;SDS011;44825;53.200;6.448;2023-11-21T07:55:51;25.00;;;13.95;;
59040;SDS011;44825;53.200;6.448;2023-11-21T07:58:17;25.77;;;15.25;;
59040;SDS011;44825;53.200;6.448;2023-11-21T08:00:43;31.17;;;17.42;;
59040;SDS011;44825;53.200;6.448;2023-11-21T08:03:10;31.65;;;17.77;;
59040;SDS011;44825;53.200;6.448;2023-11-21T08:05:36;29.40;;;17.60;;
59040;SDS011;44825;53.200;6.448;2023-11-21T08:08:05;28.73;;;16.05;;
59040;SDS011;44825;53.200;6.448;2023-11-21T08:10:31;29.23;;;16.67;;
59040;SDS011;44825;53.200;6.448;2023-11-21T08:12:57;26.80;;;17.13;;
59040;SDS011;44825;53.200;6.448;2023-11-21T08:15:23;26.08;;;15.68;;
59040;SDS011;44825;53.200;6.448;2023-11-21T08:17:49;28.30;;;16.08;;
59040;SDS011;44825;53.200;6.448;2023-11-21T08:20:15;26.65;;;16.65;;
59040;SDS011;44825;53.200;6.448;2023-11-21T08:22:43;28.02;;;16.92;;
59040;SDS011;44825;53.200;6.448;2023-11-21T08:25:09;25.73;;;16.55;;
59040;SDS011;44825;53.200;6.448;2023-11-21T08:27:35;26.92;;;17.08;;
59040;SDS011;44825;53.200;6.448;2023-11-21T08:30:04;33.67;;;16.27;;
59040;SDS011;44825;53.200;6.448;2023-11-21T08:32:30;25.48;;;15.25;;
59040;SDS011;44825;53.200;6.448;2023-11-21T08:35:00;23.75;;;15.60;;
59040;SDS011;44825;53.200;6.448;2023-11-21T08:37:26;24.08;;;15.48;;
59040;SDS011;44825;53.200;6.448;2023-11-21T08:39:55;23.73;;;15.90;;
59040;SDS011;44825;53.200;6.448;2023-11-21T08:42:21;23.00;;;15.38;;
59040;SDS011;44825;53.200;6.448;2023-11-21T08:44:48;25.40;;;16.88;;
59040;SDS011;44825;53.200;6.448;2023-11-21T08:47:14;22.60;;;15.18;;
59040;SDS011;44825;53.200;6.448;2023-11-21T08:49:40;23.85;;;15.05;;
59040;SDS011;44825;53.200;6.448;2023-11-21T08:52:06;24.60;;;16.02;;
59040;SDS011;44825;53.200;6.448;2023-11-21T08:54:32;25.63;;;16.17;;
59040;SDS011;44825;53.200;6.448;2023-11-21T08:56:59;22.02;;;14.88;;
59040;SDS011;44825;53.200;6.448;2023-11-21T08:59:25;23.77;;;15.07;;
59040;SDS011;44825;53.200;6.448;2023-11-21T09:01:51;24.08;;;14.55;;
59040;SDS011;44825;53.200;6.448;2023-11-21T09:04:17;21.38;;;14.50;;
59040;SDS011;44825;53.200;6.448;2023-11-21T09:06:44;19.23;;;13.02;;
59040;SDS011;44825;53.200;6.448;2023-11-21T09:09:10;17.13;;;12.13;;
59040;SDS011;44825;53.200;6.448;2023-11-21T09:11:36;18.13;;;12.48;;
59040;SDS011;44825;53.200;6.448;2023-11-21T09:14:02;15.13;;;10.98;;
